Disclaimer

Please do not use the information listed here in-flight or in-navigation, as they are not provided to us by the airports but are provided by volunteers, so they might be outdated.

Search


Regions


Airport information page

Radio informations:
Brisbane Center - 123.9 MHz
Automatic Terminal Information Service (ATIS) - 126.55 MHz

Airport informations:
Latitude: 17° 56' 41.00" S
Longitude: 122° 13' 54.00" E
Elevation: 56 feet - 17 meters
Operating hours: N/A
Operating agency: Civil government, landing fees and diplomatic clearance may be required
Timezone: UTC+8
Fuel: Jet A1+, Jet A1 with icing inhibitor.

Jet A1, without icing nhibitor.

Runway information:
10/28 - 8064 x 148 feet< - >2458 x 45 meters

Recent METARs:
YBRM 141700Z AUTO 34005KT 290V010 9999 // NCD 28/25 Q1009
YBRM 141700Z AUTO 34005KT 290V010 9999 // NCD 28/25 Q1009
YBRM 141800Z AUTO 34007KT 9999 // NCD 28/25 Q1009

Airport on the map: